sensor_id;sensor_type;location;lat;lon;timestamp;temperature;humidity
3268;DHT22;1646;52.450;13.326;2022-10-04T00:00:42;14.40;99.90
3268;DHT22;1646;52.450;13.326;2022-10-04T00:05:47;14.40;99.90
3268;DHT22;1646;52.450;13.326;2022-10-04T00:10:46;14.30;99.90
3268;DHT22;1646;52.450;13.326;2022-10-04T00:15:48;14.30;99.90
3268;DHT22;1646;52.450;13.326;2022-10-04T00:21:07;14.30;99.90
3268;DHT22;1646;52.450;13.326;2022-10-04T00:26:12;14.40;99.90
3268;DHT22;1646;52.450;13.326;2022-10-04T00:31:14;14.30;99.90
3268;DHT22;1646;52.450;13.326;2022-10-04T00:36:44;14.30;99.90
3268;DHT22;1646;52.450;13.326;2022-10-04T00:42:01;14.30;99.90
3268;DHT22;1646;52.450;13.326;2022-10-04T00:47:02;14.30;99.90
3268;DHT22;1646;52.450;13.326;2022-10-04T00:52:12;14.30;99.90
3268;DHT22;1646;52.450;13.326;2022-10-04T00:57:15;14.30;99.90
3268;DHT22;1646;52.450;13.326;2022-10-04T01:02:17;14.30;99.90
3268;DHT22;1646;52.450;13.326;2022-10-04T01:07:22;14.20;99.90
3268;DHT22;1646;52.450;13.326;2022-10-04T01:12:35;14.20;99.90
3268;DHT22;1646;52.450;13.326;2022-10-04T01:17:35;14.20;99.90
3268;DHT22;1646;52.450;13.326;2022-10-04T01:22:40;14.20;99.90
3268;DHT22;1646;52.450;13.326;2022-10-04T01:27:42;14.20;99.90
3268;DHT22;1646;52.450;13.326;2022-10-04T01:32:40;14.20;99.90
3268;DHT22;1646;52.450;13.326;2022-10-04T01:37:42;14.10;99.90
3268;DHT22;1646;52.450;13.326;2022-10-04T01:42:43;14.10;99.90
3268;DHT22;1646;52.450;13.326;2022-10-04T01:47:52;14.00;99.90
3268;DHT22;1646;52.450;13.326;2022-10-04T01:52:55;14.00;99.90
3268;DHT22;1646;52.450;13.326;2022-10-04T01:57:59;13.90;99.90
3268;DHT22;1646;52.450;13.326;2022-10-04T02:03:10;13.80;99.90
3268;DHT22;1646;52.450;13.326;2022-10-04T02:08:14;13.80;99.90
3268;DHT22;1646;52.450;13.326;2022-10-04T02:13:15;13.80;99.90
3268;DHT22;1646;52.450;13.326;2022-10-04T02:18:16;13.80;99.90
3268;DHT22;1646;52.450;13.326;2022-10-04T02:23:17;13.70;99.90
3268;DHT22;1646;52.450;13.326;2022-10-04T02:28:16;13.70;99.90
3268;DHT22;1646;52.450;13.326;2022-10-04T02:33:14;13.70;99.90
3268;DHT22;1646;52.450;13.326;2022-10-04T02:38:18;13.70;99.90
3268;DHT22;1646;52.450;13.326;2022-10-04T02:43:22;13.70;99.90
3268;DHT22;1646;52.450;13.326;2022-10-04T02:48:30;13.70;99.90
3268;DHT22;1646;52.450;13.326;2022-10-04T02:53:34;13.70;99.90
3268;DHT22;1646;52.450;13.326;2022-10-04T02:58:37;13.60;99.90
3268;DHT22;1646;52.450;13.326;2022-10-04T03:03:37;13.50;99.90
3268;DHT22;1646;52.450;13.326;2022-10-04T03:08:45;13.40;99.90
3268;DHT22;1646;52.450;13.326;2022-10-04T03:13:45;13.30;99.90
3268;DHT22;1646;52.450;13.326;2022-10-04T03:18:45;13.30;99.90
3268;DHT22;1646;52.450;13.326;2022-10-04T03:23:47;13.20;99.90
3268;DHT22;1646;52.450;13.326;2022-10-04T03:28:46;13.20;99.90
3268;DHT22;1646;52.450;13.326;2022-10-04T03:33:45;13.10;99.90
3268;DHT22;1646;52.450;13.326;2022-10-04T03:38:46;13.00;99.90
3268;DHT22;1646;52.450;13.326;2022-10-04T03:43:47;13.00;99.90
3268;DHT22;1646;52.450;13.326;2022-10-04T03:48:48;13.00;99.90
3268;DHT22;1646;52.450;13.326;2022-10-04T03:53:49;13.00;99.90
3268;DHT22;1646;52.450;13.326;2022-10-04T03:58:49;13.00;99.90
3268;DHT22;1646;52.450;13.326;2022-10-04T04:03:54;13.00;99.90
3268;DHT22;1646;52.450;13.326;2022-10-04T04:08:56;13.10;99.90
3268;DHT22;1646;52.450;13.326;2022-10-04T04:14:02;13.10;99.90
3268;DHT22;1646;52.450;13.326;2022-10-04T04:19:09;13.10;99.90
3268;DHT22;1646;52.450;13.326;2022-10-04T04:24:18;13.30;99.90
3268;DHT22;1646;52.450;13.326;2022-10-04T04:29:23;13.40;99.90
3268;DHT22;1646;52.450;13.326;2022-10-04T04:34:24;13.40;99.90
3268;DHT22;1646;52.450;13.326;2022-10-04T04:39:25;13.40;99.90
3268;DHT22;1646;52.450;13.326;2022-10-04T04:44:38;13.40;99.90
3268;DHT22;1646;52.450;13.326;2022-10-04T04:49:41;13.40;99.90
3268;DHT22;1646;52.450;13.326;2022-10-04T04:54:41;13.30;99.90
3268;DHT22;1646;52.450;13.326;2022-10-04T04:59:43;13.20;99.90
3268;DHT22;1646;52.450;13.326;2022-10-04T05:04:42;13.20;99.90
3268;DHT22;1646;52.450;13.326;2022-10-04T05:09:41;13.20;99.90
3268;DHT22;1646;52.450;13.326;2022-10-04T05:14:44;13.20;99.90
3268;DHT22;1646;52.450;13.326;2022-10-04T05:19:43;13.20;99.90
3268;DHT22;1646;52.450;13.326;2022-10-04T05:24:44;13.20;99.90
3268;DHT22;1646;52.450;13.326;2022-10-04T05:29:54;13.30;99.90
3268;DHT22;1646;52.450;13.326;2022-10-04T05:34:54;13.40;99.90
3268;DHT22;1646;52.450;13.326;2022-10-04T05:40:05;13.50;99.90
3268;DHT22;1646;52.450;13.326;2022-10-04T05:45:13;13.60;99.90
3268;DHT22;1646;52.450;13.326;2022-10-04T05:50:16;13.70;99.90
3268;DHT22;1646;52.450;13.326;2022-10-04T05:55:21;13.80;99.90
3268;DHT22;1646;52.450;13.326;2022-10-04T06:00:25;13.80;99.90
3268;DHT22;1646;52.450;13.326;2022-10-04T06:05:41;13.80;99.90
3268;DHT22;1646;52.450;13.326;2022-10-04T06:10:55;13.90;99.90
3268;DHT22;1646;52.450;13.326;2022-10-04T06:16:18;13.90;99.90
3268;DHT22;1646;52.450;13.326;2022-10-04T06:21:21;14.00;99.90
3268;DHT22;1646;52.450;13.326;2022-10-04T06:26:26;14.10;99.90
3268;DHT22;1646;52.450;13.326;2022-10-04T06:31:56;14.10;99.90
3268;DHT22;1646;52.450;13.326;2022-10-04T06:42:43;14.20;99.90
3268;DHT22;1646;52.450;13.326;2022-10-04T06:48:00;14.20;99.90
3268;DHT22;1646;52.450;13.326;2022-10-04T06:53:14;14.10;99.90
3268;DHT22;1646;52.450;13.326;2022-10-04T07:03:59;14.20;99.90
3268;DHT22;1646;52.450;13.326;2022-10-04T07:08:58;14.30;99.90
3268;DHT22;1646;52.450;13.326;2022-10-04T07:14:04;14.40;99.90
3268;DHT22;1646;52.450;13.326;2022-10-04T07:19:21;14.30;99.90
3268;DHT22;1646;52.450;13.326;2022-10-04T07:24:24;14.40;99.90
3268;DHT22;1646;52.450;13.326;2022-10-04T07:29:28;14.40;99.90
3268;DHT22;1646;52.450;13.326;2022-10-04T07:34:30;14.40;99.90
3268;DHT22;1646;52.450;13.326;2022-10-04T07:39:32;14.40;99.90
3268;DHT22;1646;52.450;13.326;2022-10-04T07:44:38;14.50;99.90
3268;DHT22;1646;52.450;13.326;2022-10-04T07:49:38;14.40;99.90
3268;DHT22;1646;52.450;13.326;2022-10-04T07:54:41;14.40;99.90
3268;DHT22;1646;52.450;13.326;2022-10-04T07:59:46;14.40;99.90
3268;DHT22;1646;52.450;13.326;2022-10-04T08:04:51;14.40;99.90
3268;DHT22;1646;52.450;13.326;2022-10-04T08:09:59;14.40;99.90
3268;DHT22;1646;52.450;13.326;2022-10-04T08:15:25;14.50;99.90
3268;DHT22;1646;52.450;13.326;2022-10-04T08:20:33;14.70;99.90
3268;DHT22;1646;52.450;13.326;2022-10-04T08:25:40;14.90;99.90
3268;DHT22;1646;52.450;13.326;2022-10-04T08:30:50;15.00;99.90
3268;DHT22;1646;52.450;13.326;2022-10-04T08:36:00;15.00;99.90
3268;DHT22;1646;52.450;13.326;2022-10-04T08:41:24;15.20;99.90
3268;DHT22;1646;52.450;13.326;2022-10-04T08:52:39;15.40;99.90
3268;DHT22;1646;52.450;13.326;2022-10-04T08:57:59;16.00;99.90
3268;DHT22;1646;52.450;13.326;2022-10-04T09:09:10;16.80;99.90
3268;DHT22;1646;52.450;13.326;2022-10-04T09:14:31;16.60;99.90
3268;DHT22;1646;52.450;13.326;2022-10-04T09:19:44;17.10;99.90
3268;DHT22;1646;52.450;13.326;2022-10-04T09:25:08;17.10;99.90
3268;DHT22;1646;52.450;13.326;2022-10-04T09:30:14;16.80;99.90
3268;DHT22;1646;52.450;13.326;2022-10-04T09:41:07;16.80;99.90
3268;DHT22;1646;52.450;13.326;2022-10-04T09:46:20;17.10;99.90
3268;DHT22;1646;52.450;13.326;2022-10-04T09:51:39;17.60;99.90
3268;DHT22;1646;52.450;13.326;2022-10-04T10:02:51;18.30;99.90
3268;DHT22;1646;52.450;13.326;2022-10-04T10:07:58;18.50;99.90
3268;DHT22;1646;52.450;13.326;2022-10-04T10:13:21;18.40;99.90
3268;DHT22;1646;52.450;13.326;2022-10-04T10:18:48;18.60;99.90
3268;DHT22;1646;52.450;13.326;2022-10-04T10:24:03;20.00;99.90
3268;DHT22;1646;52.450;13.326;2022-10-04T10:29:28;20.90;99.90
3268;DHT22;1646;52.450;13.326;2022-10-04T10:34:39;21.40;99.90
3268;DHT22;1646;52.450;13.326;2022-10-04T10:40:03;21.40;99.90
3268;DHT22;1646;52.450;13.326;2022-10-04T10:50:51;20.40;99.90
3268;DHT22;1646;52.450;13.326;2022-10-04T10:56:25;20.70;99.90
3268;DHT22;1646;52.450;13.326;2022-10-04T11:01:44;20.00;99.90
3268;DHT22;1646;52.450;13.326;2022-10-04T11:07:19;20.20;99.90
3268;DHT22;1646;52.450;13.326;2022-10-04T11:12:46;19.90;99.90
3268;DHT22;1646;52.450;13.326;2022-10-04T11:29:08;18.70;99.90
3268;DHT22;1646;52.450;13.326;2022-10-04T11:34:41;18.50;99.90
3268;DHT22;1646;52.450;13.326;2022-10-04T11:40:01;18.30;99.90
3268;DHT22;1646;52.450;13.326;2022-10-04T11:45:26;18.60;99.90
3268;DHT22;1646;52.450;13.326;2022-10-04T11:50:39;18.90;99.90
3268;DHT22;1646;52.450;13.326;2022-10-04T11:56:00;19.20;99.90
3268;DHT22;1646;52.450;13.326;2022-10-04T12:01:37;19.00;99.90
3268;DHT22;1646;52.450;13.326;2022-10-04T12:06:47;18.80;99.90
3268;DHT22;1646;52.450;13.326;2022-10-04T12:18:11;18.40;99.90
3268;DHT22;1646;52.450;13.326;2022-10-04T12:23:38;18.80;99.90
3268;DHT22;1646;52.450;13.326;2022-10-04T12:29:16;19.20;99.90
3268;DHT22;1646;52.450;13.326;2022-10-04T12:34:26;19.30;99.90
3268;DHT22;1646;52.450;13.326;2022-10-04T12:39:42;19.00;99.90
3268;DHT22;1646;52.450;13.326;2022-10-04T12:50:13;18.90;99.90
3268;DHT22;1646;52.450;13.326;2022-10-04T12:55:37;19.40;99.90
3268;DHT22;1646;52.450;13.326;2022-10-04T13:00:41;19.70;99.90
3268;DHT22;1646;52.450;13.326;2022-10-04T13:05:50;19.50;99.90
3268;DHT22;1646;52.450;13.326;2022-10-04T13:11:07;19.50;99.90
3268;DHT22;1646;52.450;13.326;2022-10-04T13:16:12;19.60;99.90
3268;DHT22;1646;52.450;13.326;2022-10-04T13:27:14;19.50;99.90
3268;DHT22;1646;52.450;13.326;2022-10-04T13:32:17;19.50;99.90
3268;DHT22;1646;52.450;13.326;2022-10-04T13:37:29;19.40;99.90
3268;DHT22;1646;52.450;13.326;2022-10-04T13:42:46;19.40;99.90
3268;DHT22;1646;52.450;13.326;2022-10-04T13:47:59;19.50;99.90
3268;DHT22;1646;52.450;13.326;2022-10-04T13:53:23;19.60;99.90
3268;DHT22;1646;52.450;13.326;2022-10-04T13:58:56;19.70;99.90
3268;DHT22;1646;52.450;13.326;2022-10-04T14:04:09;19.70;99.90
3268;DHT22;1646;52.450;13.326;2022-10-04T14:09:35;19.90;99.90
3268;DHT22;1646;52.450;13.326;2022-10-04T14:15:01;20.00;99.90
3268;DHT22;1646;52.450;13.326;2022-10-04T14:20:23;20.00;99.90
3268;DHT22;1646;52.450;13.326;2022-10-04T14:25:45;20.20;99.90
3268;DHT22;1646;52.450;13.326;2022-10-04T14:30:56;20.20;99.90
3268;DHT22;1646;52.450;13.326;2022-10-04T14:36:35;20.40;99.90
3268;DHT22;1646;52.450;13.326;2022-10-04T14:41:58;21.00;99.90
3268;DHT22;1646;52.450;13.326;2022-10-04T14:47:13;20.80;99.90
3268;DHT22;1646;52.450;13.326;2022-10-04T14:52:23;20.60;99.90
3268;DHT22;1646;52.450;13.326;2022-10-04T14:57:48;20.80;99.90
3268;DHT22;1646;52.450;13.326;2022-10-04T15:03:10;21.60;99.90
3268;DHT22;1646;52.450;13.326;2022-10-04T15:08:57;22.00;99.90
3268;DHT22;1646;52.450;13.326;2022-10-04T15:14:01;24.40;99.90
3268;DHT22;1646;52.450;13.326;2022-10-04T15:19:06;24.60;99.90
3268;DHT22;1646;52.450;13.326;2022-10-04T15:24:22;25.30;99.90
3268;DHT22;1646;52.450;13.326;2022-10-04T15:29:27;27.30;99.90
3268;DHT22;1646;52.450;13.326;2022-10-04T15:34:34;28.50;99.10
3268;DHT22;1646;52.450;13.326;2022-10-04T15:50:25;25.60;96.70
3268;DHT22;1646;52.450;13.326;2022-10-04T15:55:46;24.20;97.50
3268;DHT22;1646;52.450;13.326;2022-10-04T16:00:55;22.30;99.90
3268;DHT22;1646;52.450;13.326;2022-10-04T16:06:01;21.00;99.90
3268;DHT22;1646;52.450;13.326;2022-10-04T16:11:11;20.50;99.90
3268;DHT22;1646;52.450;13.326;2022-10-04T16:16:38;20.20;99.90
3268;DHT22;1646;52.450;13.326;2022-10-04T16:21:48;19.80;99.90
3268;DHT22;1646;52.450;13.326;2022-10-04T16:27:20;19.40;99.90
3268;DHT22;1646;52.450;13.326;2022-10-04T16:32:21;19.10;99.90
3268;DHT22;1646;52.450;13.326;2022-10-04T16:37:32;18.80;99.90
3268;DHT22;1646;52.450;13.326;2022-10-04T16:42:40;18.40;99.90
3268;DHT22;1646;52.450;13.326;2022-10-04T16:47:52;18.20;99.90
3268;DHT22;1646;52.450;13.326;2022-10-04T16:53:00;18.00;99.90
3268;DHT22;1646;52.450;13.326;2022-10-04T17:03:53;17.70;99.90
3268;DHT22;1646;52.450;13.326;2022-10-04T17:09:13;17.60;99.90
3268;DHT22;1646;52.450;13.326;2022-10-04T17:14:43;17.40;99.90
3268;DHT22;1646;52.450;13.326;2022-10-04T17:19:47;17.30;99.90
3268;DHT22;1646;52.450;13.326;2022-10-04T17:24:58;17.10;99.90
3268;DHT22;1646;52.450;13.326;2022-10-04T17:30:16;16.90;99.90
3268;DHT22;1646;52.450;13.326;2022-10-04T17:35:55;16.80;99.90
3268;DHT22;1646;52.450;13.326;2022-10-04T17:41:00;16.70;99.90
3268;DHT22;1646;52.450;13.326;2022-10-04T17:46:08;16.50;99.90
3268;DHT22;1646;52.450;13.326;2022-10-04T17:51:26;16.40;99.90
3268;DHT22;1646;52.450;13.326;2022-10-04T17:56:47;16.30;99.90
3268;DHT22;1646;52.450;13.326;2022-10-04T18:01:51;16.20;99.90
3268;DHT22;1646;52.450;13.326;2022-10-04T18:06:55;16.10;99.90
3268;DHT22;1646;52.450;13.326;2022-10-04T18:11:59;16.00;99.90
3268;DHT22;1646;52.450;13.326;2022-10-04T18:17:02;15.90;99.90
3268;DHT22;1646;52.450;13.326;2022-10-04T18:22:07;15.80;99.90
3268;DHT22;1646;52.450;13.326;2022-10-04T18:27:21;15.70;99.90
3268;DHT22;1646;52.450;13.326;2022-10-04T18:32:30;15.70;99.90
3268;DHT22;1646;52.450;13.326;2022-10-04T18:37:32;15.70;99.90
3268;DHT22;1646;52.450;13.326;2022-10-04T18:42:34;15.70;99.90
3268;DHT22;1646;52.450;13.326;2022-10-04T18:47:35;15.60;99.90
3268;DHT22;1646;52.450;13.326;2022-10-04T18:52:41;15.50;99.90
3268;DHT22;1646;52.450;13.326;2022-10-04T18:57:52;15.40;99.90
3268;DHT22;1646;52.450;13.326;2022-10-04T19:03:19;15.20;99.90
3268;DHT22;1646;52.450;13.326;2022-10-04T19:08:35;15.20;99.90
3268;DHT22;1646;52.450;13.326;2022-10-04T19:13:42;15.20;99.90
3268;DHT22;1646;52.450;13.326;2022-10-04T19:29:39;15.00;99.90
3268;DHT22;1646;52.450;13.326;2022-10-04T19:34:48;14.90;99.90
3268;DHT22;1646;52.450;13.326;2022-10-04T19:39:57;14.80;99.90
3268;DHT22;1646;52.450;13.326;2022-10-04T19:45:13;14.70;99.90
3268;DHT22;1646;52.450;13.326;2022-10-04T19:50:18;14.70;99.90
3268;DHT22;1646;52.450;13.326;2022-10-04T19:55:22;14.70;99.90
3268;DHT22;1646;52.450;13.326;2022-10-04T20:00:23;14.70;99.90
3268;DHT22;1646;52.450;13.326;2022-10-04T20:05:21;14.70;99.90
3268;DHT22;1646;52.450;13.326;2022-10-04T20:10:28;14.70;99.90
3268;DHT22;1646;52.450;13.326;2022-10-04T20:15:45;14.60;99.90
3268;DHT22;1646;52.450;13.326;2022-10-04T20:21:06;14.50;99.90
3268;DHT22;1646;52.450;13.326;2022-10-04T20:26:06;14.30;99.90
3268;DHT22;1646;52.450;13.326;2022-10-04T20:31:06;14.30;99.90
3268;DHT22;1646;52.450;13.326;2022-10-04T20:36:06;14.20;99.90
3268;DHT22;1646;52.450;13.326;2022-10-04T20:46:59;14.00;99.90
3268;DHT22;1646;52.450;13.326;2022-10-04T20:51:57;13.90;99.90
3268;DHT22;1646;52.450;13.326;2022-10-04T20:56:55;13.90;99.90
3268;DHT22;1646;52.450;13.326;2022-10-04T21:02:01;13.90;99.90
3268;DHT22;1646;52.450;13.326;2022-10-04T21:07:03;13.80;99.90
3268;DHT22;1646;52.450;13.326;2022-10-04T21:12:03;13.70;99.90
3268;DHT22;1646;52.450;13.326;2022-10-04T21:17:03;13.70;99.90
3268;DHT22;1646;52.450;13.326;2022-10-04T21:22:05;13.60;99.90
3268;DHT22;1646;52.450;13.326;2022-10-04T21:27:05;13.60;99.90
3268;DHT22;1646;52.450;13.326;2022-10-04T21:32:05;13.70;99.90
3268;DHT22;1646;52.450;13.326;2022-10-04T21:37:03;13.60;99.90
3268;DHT22;1646;52.450;13.326;2022-10-04T21:42:01;13.60;99.90
3268;DHT22;1646;52.450;13.326;2022-10-04T21:46:59;13.50;99.90
3268;DHT22;1646;52.450;13.326;2022-10-04T21:51:59;13.60;99.90
3268;DHT22;1646;52.450;13.326;2022-10-04T21:56:57;13.60;99.90
3268;DHT22;1646;52.450;13.326;2022-10-04T22:01:55;13.50;99.90
3268;DHT22;1646;52.450;13.326;2022-10-04T22:06:53;13.50;99.90
3268;DHT22;1646;52.450;13.326;2022-10-04T22:11:52;13.50;99.90
3268;DHT22;1646;52.450;13.326;2022-10-04T22:16:50;13.50;99.90
3268;DHT22;1646;52.450;13.326;2022-10-04T22:21:49;13.50;99.90
3268;DHT22;1646;52.450;13.326;2022-10-04T22:26:47;13.50;99.90
3268;DHT22;1646;52.450;13.326;2022-10-04T22:31:49;13.40;99.90
3268;DHT22;1646;52.450;13.326;2022-10-04T22:36:48;13.40;99.90
3268;DHT22;1646;52.450;13.326;2022-10-04T22:41:51;13.40;99.90
3268;DHT22;1646;52.450;13.326;2022-10-04T22:46:53;13.30;99.90
3268;DHT22;1646;52.450;13.326;2022-10-04T22:51:52;13.40;99.90
3268;DHT22;1646;52.450;13.326;2022-10-04T22:56:52;13.30;99.90
3268;DHT22;1646;52.450;13.326;2022-10-04T23:01:51;13.20;99.90
3268;DHT22;1646;52.450;13.326;2022-10-04T23:06:50;13.20;99.90
3268;DHT22;1646;52.450;13.326;2022-10-04T23:11:48;13.20;99.90
3268;DHT22;1646;52.450;13.326;2022-10-04T23:16:46;13.30;99.90
3268;DHT22;1646;52.450;13.326;2022-10-04T23:21:47;13.30;99.90
3268;DHT22;1646;52.450;13.326;2022-10-04T23:26:46;13.30;99.90
3268;DHT22;1646;52.450;13.326;2022-10-04T23:31:45;13.30;99.90
3268;DHT22;1646;52.450;13.326;2022-10-04T23:36:47;13.30;99.90
3268;DHT22;1646;52.450;13.326;2022-10-04T23:41:45;13.20;99.90
3268;DHT22;1646;52.450;13.326;2022-10-04T23:46:43;13.20;99.90
3268;DHT22;1646;52.450;13.326;2022-10-04T23:51:42;13.10;99.90
3268;DHT22;1646;52.450;13.326;2022-10-04T23:56:42;13.00;99.90
